Time;durP1;ratioP1;P1;durP2;ratioP2;P2;SDS_P1;SDS_P2;PMS_P1;PMS_P2;Temp;Humidity;BMP_temperature;BMP_pressure;BME280_temperature;BME280_humidity;BME280_pressure;Samples;Min_cycle;Max_cycle;Signal;HPM_P1;HPM_P2
2022/01/22 00:02:09;;;;;;;;;;;1.40;99.90;;;;;;5094491;28;20280;-67
2022/01/22 00:04:34;;;;;;;;;;;1.40;99.90;;;;;;5086389;28;19912;-68
2022/01/22 00:07:02;;;;;;;;;;;1.50;99.90;;;;;;5094232;28;20311;-67
2022/01/22 00:09:35;;;;;;;;;;;1.50;99.90;;;;;;5092387;28;19915;-67
2022/01/22 00:12:01;;;;;;;;;;;1.50;99.90;;;;;;5095114;28;19959;-68
2022/01/22 00:14:27;;;;;;;;;;;1.50;99.90;;;;;;5074455;28;19908;-67
2022/01/22 00:16:57;;;;;;;;;;;1.50;99.90;;;;;;5076392;28;19904;-68
2022/01/22 00:19:23;;;;;;;;;;;1.50;99.90;;;;;;5094952;28;20253;-67
2022/01/22 00:21:51;;;;;;;;;;;1.50;99.90;;;;;;5095417;28;20261;-68
2022/01/22 00:24:16;;;;;;;;;;;1.50;99.90;;;;;;5076515;28;20018;-67
2022/01/22 00:26:42;;;;;;;;;;;1.60;99.90;;;;;;5074955;28;19962;-67
2022/01/22 00:29:09;;;;;;;;;;;1.60;99.90;;;;;;5075486;28;19908;-67
2022/01/22 00:31:35;;;;;;;;;;;1.60;99.90;;;;;;5074461;28;20006;-67
2022/01/22 00:34:01;;;;;;;;;;;1.60;99.90;;;;;;5091477;28;19943;-67
2022/01/22 00:36:26;;;;;;;;;;;1.60;99.90;;;;;;5093178;28;19949;-67
2022/01/22 00:38:52;;;;;;;;;;;1.60;99.90;;;;;;5074930;28;19916;-67
2022/01/22 00:41:17;;;;;;;;;;;1.60;99.90;;;;;;5074549;28;19935;-67
2022/01/22 00:43:43;;;;;;;;;;;1.60;99.90;;;;;;5088552;28;20368;-67
2022/01/22 00:46:08;;;;;;;;;;;1.70;99.90;;;;;;5095330;28;19904;-68
2022/01/22 00:48:34;;;;;;;;;;;1.70;99.90;;;;;;5094254;28;19919;-67
2022/01/22 00:51:00;;;;;;;;;;;1.60;99.90;;;;;;5094796;28;19915;-68
2022/01/22 00:53:25;;;;;;;;;;;1.60;99.90;;;;;;5082698;28;19915;-67
2022/01/22 00:55:51;;;;;;;;;;;1.70;99.90;;;;;;5074773;28;19962;-67
2022/01/22 00:58:16;;;;;;;;;;;1.60;99.90;;;;;;5079834;28;19911;-67
2022/01/22 01:00:42;;;;;;;;;;;1.60;99.90;;;;;;5094526;28;19912;-67
2022/01/22 01:03:08;;;;;;;;;;;1.70;99.90;;;;;;5086508;28;19908;-67
2022/01/22 01:05:34;;;;;;;;;;;1.70;99.90;;;;;;5073336;28;19911;-67
2022/01/22 01:08:00;;;;;;;;;;;1.70;99.90;;;;;;5074385;28;20370;-68
2022/01/22 01:10:25;;;;;;;;;;;1.70;99.90;;;;;;5073696;28;19935;-67
2022/01/22 01:12:52;;;;;;;;;;;1.70;99.90;;;;;;5081316;28;19908;-67
2022/01/22 01:17:59;;;;;;;;;;;1.80;99.90;;;;;;5075898;28;20282;-69
2022/01/22 01:34:14;;;;;;;;;;;1.90;99.90;;;;;;5093999;28;20268;-69
2022/01/22 01:36:42;;;;;;;;;;;1.90;99.90;;;;;;5088218;28;19928;-69
2022/01/22 01:39:10;;;;;;;;;;;1.90;99.90;;;;;;5073650;28;19909;-70
2022/01/22 01:41:51;;;;;;;;;;;1.90;99.90;;;;;;5083341;28;20318;-69
2022/01/22 01:44:17;;;;;;;;;;;2.00;99.90;;;;;;5094009;28;19904;-69
2022/01/22 01:46:43;;;;;;;;;;;2.00;99.90;;;;;;5090292;28;20396;-69
2022/01/22 01:49:09;;;;;;;;;;;2.00;99.90;;;;;;5073433;28;19938;-69
2022/01/22 01:51:35;;;;;;;;;;;2.00;99.90;;;;;;5072004;28;19920;-69
2022/01/22 01:54:08;;;;;;;;;;;2.00;99.90;;;;;;5074499;28;20285;-69
2022/01/22 01:59:18;;;;;;;;;;;2.10;99.90;;;;;;5073181;28;20008;-69
2022/01/22 02:01:43;;;;;;;;;;;2.10;99.90;;;;;;5073355;28;19958;-69
2022/01/22 02:04:12;;;;;;;;;;;2.20;99.90;;;;;;5073570;28;19908;-69
2022/01/22 02:06:37;;;;;;;;;;;2.20;99.90;;;;;;5072493;28;19908;-69
2022/01/22 02:09:08;;;;;;;;;;;2.20;99.90;;;;;;5074167;28;19915;-69
2022/01/22 02:11:34;;;;;;;;;;;2.30;99.90;;;;;;5072708;28;19909;-69
2022/01/22 02:14:10;;;;;;;;;;;2.30;99.90;;;;;;5073183;28;19908;-70
2022/01/22 02:24:51;;;;;;;;;;;2.30;99.90;;;;;;5079866;28;19911;-68
2022/01/22 02:27:17;;;;;;;;;;;2.30;99.90;;;;;;5073560;28;19904;-68
2022/01/22 02:29:43;;;;;;;;;;;2.40;99.90;;;;;;5090801;28;19963;-67
2022/01/22 02:34:48;;;;;;;;;;;2.40;99.90;;;;;;5092441;28;19943;-68
2022/01/22 02:37:17;;;;;;;;;;;2.30;99.90;;;;;;5072822;28;19909;-68
2022/01/22 02:39:57;;;;;;;;;;;2.40;99.90;;;;;;5072149;28;19917;-68
2022/01/22 02:42:27;;;;;;;;;;;2.30;99.90;;;;;;5072243;28;20004;-67
2022/01/22 02:44:53;;;;;;;;;;;2.40;99.90;;;;;;5072789;28;19957;-68
2022/01/22 02:47:19;;;;;;;;;;;2.40;99.90;;;;;;5077727;28;19908;-68
2022/01/22 02:49:45;;;;;;;;;;;2.60;99.90;;;;;;5071436;28;19946;-68
2022/01/22 02:52:11;;;;;;;;;;;2.60;99.90;;;;;;5054848;28;20353;-68
2022/01/22 02:54:37;;;;;;;;;;;2.60;99.90;;;;;;5071401;28;19904;-68
2022/01/22 02:57:03;;;;;;;;;;;2.60;99.90;;;;;;5090109;28;19907;-67
2022/01/22 02:59:28;;;;;;;;;;;2.70;99.90;;;;;;5091349;28;19930;-67
2022/01/22 03:01:54;;;;;;;;;;;2.70;99.90;;;;;;5092750;28;20372;-67
2022/01/22 03:04:20;;;;;;;;;;;2.60;99.90;;;;;;5092686;28;19911;-67
2022/01/22 03:06:47;;;;;;;;;;;2.70;99.90;;;;;;5076266;28;19909;-67
2022/01/22 03:09:15;;;;;;;;;;;2.70;99.90;;;;;;5072276;28;20365;-67
2022/01/22 03:11:58;;;;;;;;;;;2.70;99.90;;;;;;5071902;28;19904;-67
2022/01/22 03:14:59;;;;;;;;;;;2.70;99.90;;;;;;5071867;28;19962;-66
2022/01/22 03:27:30;;;;;;;;;;;2.70;99.90;;;;;;5091840;28;19965;-69
2022/01/22 03:29:56;;;;;;;;;;;2.70;99.90;;;;;;5095357;28;20337;-69
2022/01/22 03:32:23;;;;;;;;;;;2.70;99.90;;;;;;5096555;28;19957;-68
2022/01/22 03:34:58;;;;;;;;;;;2.60;99.90;;;;;;5095145;28;20416;-68
2022/01/22 03:37:25;;;;;;;;;;;2.60;99.90;;;;;;5096187;28;20002;-68
2022/01/22 03:39:51;;;;;;;;;;;2.60;99.90;;;;;;5092995;28;20353;-67
2022/01/22 03:42:16;;;;;;;;;;;2.60;99.90;;;;;;5090206;28;20230;-68
2022/01/22 03:44:42;;;;;;;;;;;2.60;99.90;;;;;;5093922;28;19911;-67
2022/01/22 03:47:08;;;;;;;;;;;2.60;99.90;;;;;;5075872;28;19908;-67
2022/01/22 03:49:33;;;;;;;;;;;2.60;99.90;;;;;;5080596;28;20006;-67
2022/01/22 03:51:59;;;;;;;;;;;2.60;99.90;;;;;;5096163;28;19908;-67
2022/01/22 03:54:24;;;;;;;;;;;2.60;99.90;;;;;;5094814;28;19915;-68
2022/01/22 03:56:51;;;;;;;;;;;2.60;99.90;;;;;;5075663;28;20264;-67
2022/01/22 03:59:17;;;;;;;;;;;2.50;99.90;;;;;;5075585;28;19904;-67
2022/01/22 04:04:31;;;;;;;;;;;2.50;99.90;;;;;;5089451;28;19925;-67
2022/01/22 04:09:44;;;;;;;;;;;2.60;99.90;;;;;;5074907;28;19962;-71
2022/01/22 04:12:12;;;;;;;;;;;2.60;99.90;;;;;;5075389;28;19911;-68
2022/01/22 04:14:45;;;;;;;;;;;2.60;99.90;;;;;;5090420;28;19926;-68
2022/01/22 04:25:08;;;;;;;;;;;2.60;99.90;;;;;;5084172;28;19923;-69
2022/01/22 04:27:34;;;;;;;;;;;2.50;99.90;;;;;;5094814;28;19911;-68
2022/01/22 04:29:59;;;;;;;;;;;2.60;99.90;;;;;;5095520;28;19904;-69
2022/01/22 04:32:26;;;;;;;;;;;2.50;99.90;;;;;;5077143;28;19912;-69
2022/01/22 04:34:52;;;;;;;;;;;2.50;99.90;;;;;;5075440;28;20361;-69
2022/01/22 04:37:18;;;;;;;;;;;2.60;99.90;;;;;;5093302;28;19908;-69
2022/01/22 04:39:45;;;;;;;;;;;2.60;99.90;;;;;;5082975;28;19919;-69
2022/01/22 04:42:10;;;;;;;;;;;2.60;99.90;;;;;;5074289;28;20300;-69
2022/01/22 04:44:43;;;;;;;;;;;2.60;99.90;;;;;;5074278;28;19904;-69
2022/01/22 04:55:02;;;;;;;;;;;2.60;99.90;;;;;;5091486;28;19951;-68
2022/01/22 04:57:29;;;;;;;;;;;2.60;99.90;;;;;;5074109;28;19908;-67
2022/01/22 04:59:54;;;;;;;;;;;2.60;99.90;;;;;;5077929;28;19921;-68
2022/01/22 05:02:20;;;;;;;;;;;2.60;99.90;;;;;;5094774;28;19904;-68
2022/01/22 05:04:45;;;;;;;;;;;2.70;99.90;;;;;;5092912;28;19911;-68
2022/01/22 05:07:11;;;;;;;;;;;2.70;99.90;;;;;;5074399;28;19915;-69
2022/01/22 05:09:36;;;;;;;;;;;2.70;99.90;;;;;;5073882;28;19911;-68
2022/01/22 05:12:04;;;;;;;;;;;2.70;99.90;;;;;;5074267;28;20285;-69
2022/01/22 05:14:29;;;;;;;;;;;2.80;99.90;;;;;;5074770;28;19908;-68
2022/01/22 05:16:56;;;;;;;;;;;2.90;99.90;;;;;;5094812;28;19993;-68
2022/01/22 05:19:30;;;;;;;;;;;2.80;99.90;;;;;;5094039;28;20277;-68
2022/01/22 05:22:02;;;;;;;;;;;2.90;99.90;;;;;;5094013;28;19919;-68
2022/01/22 05:24:31;;;;;;;;;;;2.90;99.90;;;;;;5093559;28;19910;-68
2022/01/22 05:29:59;;;;;;;;;;;2.80;99.90;;;;;;5089634;28;19953;-69
2022/01/22 05:37:34;;;;;;;;;;;2.90;99.90;;;;;;5049147;28;19950;-68
2022/01/22 05:39:59;;;;;;;;;;;2.80;99.90;;;;;;5073720;28;19951;-68
2022/01/22 05:42:25;;;;;;;;;;;2.80;99.90;;;;;;5073395;28;20006;-69
2022/01/22 05:44:50;;;;;;;;;;;2.70;99.90;;;;;;5078660;28;19915;-69
2022/01/22 05:47:22;;;;;;;;;;;2.80;99.90;;;;;;5092791;28;19908;-69
2022/01/22 05:49:47;;;;;;;;;;;2.80;99.90;;;;;;5091143;28;20280;-68
2022/01/22 05:52:19;;;;;;;;;;;2.80;99.90;;;;;;5091544;28;19908;-68
2022/01/22 05:59:54;;;;;;;;;;;2.80;99.90;;;;;;5091414;28;19927;-68
2022/01/22 06:02:19;;;;;;;;;;;2.80;99.90;;;;;;5090381;28;19912;-68
2022/01/22 06:04:45;;;;;;;;;;;2.70;99.90;;;;;;5090793;28;19915;-68
2022/01/22 06:07:11;;;;;;;;;;;2.80;99.90;;;;;;5092204;28;19904;-69
2022/01/22 06:09:40;;;;;;;;;;;2.80;99.90;;;;;;5090254;28;20249;-68
2022/01/22 06:14:32;;;;;;;;;;;2.80;99.90;;;;;;5090492;28;19953;-68
2022/01/22 06:16:57;;;;;;;;;;;2.80;99.90;;;;;;5091932;28;19904;-68
2022/01/22 06:19:23;;;;;;;;;;;2.80;99.90;;;;;;5092182;28;19912;-68
2022/01/22 06:21:51;;;;;;;;;;;2.70;99.90;;;;;;5091343;28;20084;-69
2022/01/22 06:24:19;;;;;;;;;;;2.80;99.90;;;;;;5086291;28;19962;-69
2022/01/22 06:26:45;;;;;;;;;;;2.80;99.90;;;;;;5090524;28;20001;-67
2022/01/22 06:29:11;;;;;;;;;;;2.80;99.90;;;;;;5091201;28;19904;-69
2022/01/22 06:31:36;;;;;;;;;;;2.80;99.90;;;;;;5090123;28;19904;-67
2022/01/22 06:34:03;;;;;;;;;;;2.80;99.90;;;;;;5090802;28;19994;-67
2022/01/22 06:36:29;;;;;;;;;;;2.90;99.90;;;;;;5090963;28;20334;-67
2022/01/22 06:39:09;;;;;;;;;;;2.80;99.90;;;;;;5090486;28;19951;-67
2022/01/22 06:41:53;;;;;;;;;;;2.90;99.90;;;;;;5088839;28;20023;-67
2022/01/22 06:44:23;;;;;;;;;;;2.90;99.90;;;;;;5090478;28;20376;-68
2022/01/22 06:46:50;;;;;;;;;;;2.90;99.90;;;;;;5090489;28;19969;-68
2022/01/22 06:49:16;;;;;;;;;;;2.90;99.90;;;;;;5087423;28;19969;-68
2022/01/22 06:51:42;;;;;;;;;;;2.90;99.90;;;;;;5090589;28;19908;-69
2022/01/22 06:54:09;;;;;;;;;;;2.90;99.90;;;;;;5090087;28;19908;-68
2022/01/22 06:56:35;;;;;;;;;;;2.90;99.90;;;;;;5089978;28;19912;-68
2022/01/22 06:59:00;;;;;;;;;;;2.90;99.90;;;;;;5090790;28;19908;-68
2022/01/22 07:01:26;;;;;;;;;;;3.00;99.90;;;;;;5090858;28;20337;-68
2022/01/22 07:03:55;;;;;;;;;;;3.00;99.90;;;;;;5092094;28;19907;-68
2022/01/22 07:06:21;;;;;;;;;;;2.90;99.90;;;;;;5097822;28;20002;-68
2022/01/22 07:08:46;;;;;;;;;;;2.90;99.90;;;;;;5096383;28;19915;-68
2022/01/22 07:11:12;;;;;;;;;;;3.00;99.90;;;;;;5097736;28;19904;-68
2022/01/22 07:13:38;;;;;;;;;;;3.00;99.90;;;;;;5096185;28;19908;-67
2022/01/22 07:16:04;;;;;;;;;;;3.00;99.90;;;;;;5097013;28;19912;-67
2022/01/22 07:18:30;;;;;;;;;;;3.00;99.90;;;;;;5093174;28;20007;-66
2022/01/22 07:20:56;;;;;;;;;;;2.90;99.90;;;;;;5096086;28;20384;-67
2022/01/22 07:25:59;;;;;;;;;;;2.80;99.90;;;;;;5095851;28;19950;-67
2022/01/22 07:28:25;;;;;;;;;;;2.90;99.90;;;;;;5096997;28;19940;-67
2022/01/22 07:30:52;;;;;;;;;;;2.80;99.90;;;;;;5096700;28;19965;-67
2022/01/22 07:33:18;;;;;;;;;;;2.80;99.90;;;;;;5096595;28;19947;-67
2022/01/22 07:35:44;;;;;;;;;;;2.80;99.90;;;;;;5078336;28;19919;-67
2022/01/22 07:38:10;;;;;;;;;;;2.80;99.90;;;;;;5093422;28;19904;-68
2022/01/22 07:40:36;;;;;;;;;;;2.80;99.90;;;;;;5096605;28;20388;-67
2022/01/22 07:43:01;;;;;;;;;;;2.80;99.90;;;;;;5097204;28;19946;-67
2022/01/22 07:45:27;;;;;;;;;;;2.70;99.90;;;;;;5097161;28;19915;-68
2022/01/22 07:47:53;;;;;;;;;;;2.70;99.90;;;;;;5093634;28;19915;-67
2022/01/22 07:50:19;;;;;;;;;;;2.70;99.90;;;;;;5097313;28;19927;-68
2022/01/22 07:52:44;;;;;;;;;;;2.80;99.90;;;;;;5095090;28;20360;-67
2022/01/22 07:55:10;;;;;;;;;;;2.70;99.90;;;;;;5097355;28;20352;-68
2022/01/22 07:57:36;;;;;;;;;;;2.80;99.90;;;;;;5090127;28;19939;-66
2022/01/22 08:00:02;;;;;;;;;;;2.70;99.90;;;;;;5092178;28;19938;-68
2022/01/22 08:02:28;;;;;;;;;;;2.70;99.90;;;;;;5096750;28;19908;-67
2022/01/22 08:04:53;;;;;;;;;;;2.70;99.90;;;;;;5090880;28;20301;-69
2022/01/22 08:07:19;;;;;;;;;;;2.70;99.90;;;;;;5091577;28;19915;-68
2022/01/22 08:09:45;;;;;;;;;;;2.70;99.90;;;;;;5096528;28;19912;-69
2022/01/22 08:12:11;;;;;;;;;;;2.70;99.90;;;;;;5091570;28;19915;-70
2022/01/22 08:14:37;;;;;;;;;;;2.70;99.90;;;;;;5095116;28;19995;-67
2022/01/22 08:17:03;;;;;;;;;;;2.70;99.90;;;;;;5092677;28;20003;-69
2022/01/22 08:19:28;;;;;;;;;;;2.60;99.90;;;;;;5092569;28;19958;-69
2022/01/22 08:21:54;;;;;;;;;;;2.60;99.90;;;;;;5093216;28;19916;-69
2022/01/22 08:24:24;;;;;;;;;;;2.60;99.90;;;;;;5092715;28;19954;-69
2022/01/22 08:27:07;;;;;;;;;;;2.50;99.90;;;;;;5093462;28;19904;-67
2022/01/22 08:29:33;;;;;;;;;;;2.50;99.90;;;;;;5090958;28;19994;-67
2022/01/22 08:37:26;;;;;;;;;;;2.50;99.90;;;;;;5092666;28;19915;-70
2022/01/22 08:39:52;;;;;;;;;;;2.50;99.90;;;;;;5094355;28;19915;-69
2022/01/22 08:42:18;;;;;;;;;;;2.40;99.90;;;;;;5094290;28;20375;-69
2022/01/22 08:44:43;;;;;;;;;;;2.40;99.90;;;;;;5084271;28;19962;-68
2022/01/22 08:47:09;;;;;;;;;;;2.30;99.90;;;;;;5074369;28;19904;-71
2022/01/22 08:49:34;;;;;;;;;;;2.30;99.90;;;;;;5073745;28;19920;-69
2022/01/22 08:52:01;;;;;;;;;;;2.30;99.90;;;;;;5076011;28;20353;-70
2022/01/22 08:54:27;;;;;;;;;;;2.30;99.90;;;;;;5087743;28;19916;-71
2022/01/22 08:56:52;;;;;;;;;;;2.30;99.90;;;;;;5074080;28;20342;-72
2022/01/22 08:59:18;;;;;;;;;;;2.20;99.90;;;;;;5093455;28;19915;-75
2022/01/22 09:01:46;;;;;;;;;;;2.20;99.90;;;;;;5073441;28;20315;-68
2022/01/22 09:04:12;;;;;;;;;;;2.30;99.90;;;;;;5060207;28;19914;-72
2022/01/22 09:06:38;;;;;;;;;;;2.30;99.90;;;;;;5089533;28;19908;-71
2022/01/22 09:09:10;;;;;;;;;;;2.30;99.90;;;;;;5093092;28;19910;-68
2022/01/22 09:11:37;;;;;;;;;;;2.30;99.90;;;;;;5074001;28;19909;-67
2022/01/22 09:14:06;;;;;;;;;;;2.30;99.90;;;;;;5076267;28;19946;-69
2022/01/22 09:16:33;;;;;;;;;;;2.30;99.90;;;;;;5094482;28;19904;-68
2022/01/22 09:19:06;;;;;;;;;;;2.30;99.90;;;;;;5094328;28;19909;-68
2022/01/22 09:21:33;;;;;;;;;;;2.40;99.90;;;;;;5093972;28;19920;-66
2022/01/22 09:23:59;;;;;;;;;;;2.40;99.90;;;;;;5092414;28;19911;-69
2022/01/22 09:26:25;;;;;;;;;;;2.50;99.90;;;;;;5093561;28;19912;-69
2022/01/22 09:28:52;;;;;;;;;;;2.50;99.90;;;;;;5093419;28;19908;-76
2022/01/22 09:31:18;;;;;;;;;;;2.50;99.90;;;;;;5087530;28;20269;-73
2022/01/22 09:33:44;;;;;;;;;;;2.50;99.90;;;;;;5093305;28;19919;-71
2022/01/22 09:36:09;;;;;;;;;;;2.60;99.90;;;;;;5094217;28;19904;-71
2022/01/22 09:38:35;;;;;;;;;;;2.60;99.90;;;;;;5093648;28;19933;-69
2022/01/22 09:41:01;;;;;;;;;;;2.60;99.90;;;;;;5090662;28;19980;-69
2022/01/22 09:43:27;;;;;;;;;;;2.70;99.90;;;;;;5072695;28;20037;-70
2022/01/22 09:45:52;;;;;;;;;;;2.80;99.90;;;;;;5073198;28;19905;-70
2022/01/22 09:48:18;;;;;;;;;;;2.80;99.90;;;;;;5073312;28;19904;-70
2022/01/22 09:50:44;;;;;;;;;;;2.80;99.90;;;;;;5082787;28;19973;-68
2022/01/22 09:53:10;;;;;;;;;;;2.80;99.90;;;;;;5093085;28;19904;-71
2022/01/22 09:55:36;;;;;;;;;;;2.90;99.90;;;;;;5093228;28;19908;-73
2022/01/22 09:58:02;;;;;;;;;;;2.90;99.90;;;;;;5093626;28;20280;-67
2022/01/22 10:00:27;;;;;;;;;;;2.90;99.90;;;;;;5080661;28;20010;-69
2022/01/22 10:02:55;;;;;;;;;;;2.90;99.90;;;;;;5079458;28;19912;-67
2022/01/22 10:05:31;;;;;;;;;;;2.90;99.90;;;;;;5056167;28;19908;-66
2022/01/22 10:08:15;;;;;;;;;;;2.90;99.90;;;;;;5073630;28;19904;-67
2022/01/22 10:10:41;;;;;;;;;;;2.90;99.90;;;;;;5102119;28;20425;-66
2022/01/22 10:13:06;;;;;;;;;;;3.00;99.90;;;;;;5092427;28;19904;-67
2022/01/22 10:15:35;;;;;;;;;;;3.00;99.90;;;;;;5084802;28;19915;-67
2022/01/22 10:18:00;;;;;;;;;;;3.00;99.90;;;;;;5073194;28;20353;-67
2022/01/22 10:20:27;;;;;;;;;;;3.10;99.90;;;;;;5079843;28;19920;-66
2022/01/22 10:23:05;;;;;;;;;;;3.10;99.90;;;;;;5075533;28;19969;-66
2022/01/22 10:25:43;;;;;;;;;;;3.20;99.90;;;;;;5085918;28;19908;-67
2022/01/22 10:28:11;;;;;;;;;;;3.20;99.90;;;;;;5091739;28;19904;-66
2022/01/22 10:30:42;;;;;;;;;;;3.30;99.90;;;;;;5076330;28;20307;-67
2022/01/22 10:33:19;;;;;;;;;;;3.20;99.90;;;;;;5074675;28;19907;-67
2022/01/22 10:35:45;;;;;;;;;;;3.30;99.90;;;;;;5094006;28;19939;-67
2022/01/22 10:38:11;;;;;;;;;;;3.30;99.90;;;;;;5092502;28;19904;-65
2022/01/22 10:40:38;;;;;;;;;;;3.30;99.90;;;;;;5091645;28;19912;-65
2022/01/22 10:43:12;;;;;;;;;;;3.40;99.90;;;;;;5074778;28;19912;-65
2022/01/22 10:45:42;;;;;;;;;;;3.30;99.90;;;;;;5072103;28;19916;-65
2022/01/22 10:48:18;;;;;;;;;;;3.40;99.90;;;;;;5072362;28;20344;-65
2022/01/22 10:50:44;;;;;;;;;;;3.40;99.90;;;;;;5071374;28;19920;-65
2022/01/22 10:53:09;;;;;;;;;;;3.40;99.90;;;;;;5090355;28;20296;-65
2022/01/22 10:55:54;;;;;;;;;;;3.40;99.90;;;;;;5088242;28;20102;-65
2022/01/22 10:58:19;;;;;;;;;;;3.40;99.90;;;;;;5091998;28;20357;-65
2022/01/22 11:00:56;;;;;;;;;;;3.50;99.90;;;;;;5091788;28;20003;-65
2022/01/22 11:03:23;;;;;;;;;;;3.50;99.90;;;;;;5091895;28;20167;-65
2022/01/22 11:05:48;;;;;;;;;;;3.50;99.90;;;;;;5090344;28;19908;-65
2022/01/22 11:08:14;;;;;;;;;;;3.50;99.90;;;;;;5092768;28;19970;-65
2022/01/22 11:10:43;;;;;;;;;;;3.50;99.90;;;;;;5091545;28;19912;-65
2022/01/22 11:13:08;;;;;;;;;;;3.50;99.90;;;;;;5091038;28;20264;-67
2022/01/22 11:15:34;;;;;;;;;;;3.50;99.90;;;;;;5074130;28;19908;-66
2022/01/22 11:18:01;;;;;;;;;;;3.50;99.90;;;;;;5091717;28;19946;-66
2022/01/22 11:20:30;;;;;;;;;;;3.60;99.90;;;;;;5092379;28;19916;-67
2022/01/22 11:22:57;;;;;;;;;;;3.60;99.90;;;;;;5075929;28;19915;-68
2022/01/22 11:25:24;;;;;;;;;;;3.60;99.90;;;;;;5084303;28;19948;-66
2022/01/22 11:27:49;;;;;;;;;;;3.60;99.90;;;;;;5091622;28;19910;-64
2022/01/22 11:30:16;;;;;;;;;;;3.60;99.90;;;;;;5091936;28;20407;-64
2022/01/22 11:32:44;;;;;;;;;;;3.60;99.90;;;;;;5079162;28;19915;-65
2022/01/22 11:35:11;;;;;;;;;;;3.70;99.90;;;;;;5072151;28;19970;-65
2022/01/22 11:37:39;;;;;;;;;;;3.60;99.90;;;;;;5072102;28;19905;-65
2022/01/22 11:40:11;;;;;;;;;;;3.60;99.90;;;;;;5072528;28;19943;-66
2022/01/22 11:43:05;;;;;;;;;;;3.60;99.90;;;;;;5083601;28;19915;-66
2022/01/22 11:45:41;;;;;;;;;;;3.70;99.90;;;;;;5092057;28;19904;-67
2022/01/22 11:48:09;;;;;;;;;;;3.70;99.90;;;;;;5088716;28;19908;-67
2022/01/22 11:50:35;;;;;;;;;;;3.80;99.90;;;;;;5078040;28;20395;-66
2022/01/22 11:53:19;;;;;;;;;;;3.80;99.90;;;;;;5089510;28;19990;-66
2022/01/22 11:56:04;;;;;;;;;;;3.90;99.90;;;;;;5084348;28;19919;-67
2022/01/22 11:58:30;;;;;;;;;;;3.90;99.90;;;;;;5075620;28;19958;-66
2022/01/22 12:00:55;;;;;;;;;;;4.00;99.90;;;;;;5074930;28;20308;-66
2022/01/22 12:03:21;;;;;;;;;;;4.00;99.90;;;;;;5092076;28;20409;-66
2022/01/22 12:05:52;;;;;;;;;;;4.10;99.90;;;;;;5095019;28;19923;-65
2022/01/22 12:08:19;;;;;;;;;;;4.20;99.90;;;;;;5095465;28;20284;-65
2022/01/22 12:14:26;;;;;;;;;;;4.20;99.90;;;;;;5090685;28;19912;-65
2022/01/22 12:16:51;;;;;;;;;;;4.30;99.90;;;;;;5075132;28;20336;-65
2022/01/22 12:19:35;;;;;;;;;;;4.40;99.90;;;;;;5044407;28;19912;-65
2022/01/22 12:22:00;;;;;;;;;;;4.50;99.90;;;;;;5089262;28;19921;-65
2022/01/22 12:24:32;;;;;;;;;;;4.50;99.90;;;;;;5079290;28;19904;-65
2022/01/22 12:27:01;;;;;;;;;;;4.50;99.90;;;;;;5095017;28;19943;-65
2022/01/22 12:29:30;;;;;;;;;;;4.70;99.90;;;;;;5094867;28;19915;-64
2022/01/22 12:32:04;;;;;;;;;;;4.70;99.90;;;;;;5090151;28;19974;-66
2022/01/22 12:34:48;;;;;;;;;;;4.70;99.90;;;;;;5093487;28;19912;-65
2022/01/22 12:37:18;;;;;;;;;;;4.70;99.90;;;;;;5094836;28;20277;-65
2022/01/22 12:39:49;;;;;;;;;;;4.70;99.90;;;;;;5083337;28;20288;-65
2022/01/22 12:42:24;;;;;;;;;;;4.70;99.90;;;;;;5074665;28;20312;-65
2022/01/22 12:44:56;;;;;;;;;;;4.70;99.90;;;;;;5070200;28;19916;-66
2022/01/22 12:47:22;;;;;;;;;;;4.60;99.90;;;;;;5074680;28;19904;-66
2022/01/22 12:49:57;;;;;;;;;;;4.60;99.90;;;;;;5073428;28;19920;-66
2022/01/22 12:52:25;;;;;;;;;;;4.70;99.90;;;;;;5082087;28;19927;-68
2022/01/22 12:54:56;;;;;;;;;;;4.60;99.90;;;;;;5094482;28;19911;-67
2022/01/22 12:57:24;;;;;;;;;;;4.70;99.90;;;;;;5094786;28;19996;-66
2022/01/22 12:59:50;;;;;;;;;;;4.60;99.90;;;;;;5083728;28;19919;-65
2022/01/22 13:02:16;;;;;;;;;;;4.70;99.90;;;;;;5075118;28;19912;-65
2022/01/22 13:04:55;;;;;;;;;;;4.80;99.90;;;;;;5093838;28;19991;-65
2022/01/22 13:07:20;;;;;;;;;;;4.70;99.90;;;;;;5094330;28;19903;-66
2022/01/22 13:09:47;;;;;;;;;;;4.70;99.90;;;;;;5093606;28;20445;-65
2022/01/22 13:12:13;;;;;;;;;;;4.70;99.90;;;;;;5088323;28;20361;-66
2022/01/22 13:14:38;;;;;;;;;;;4.60;99.90;;;;;;5056295;28;19911;-65
2022/01/22 13:17:10;;;;;;;;;;;4.60;99.90;;;;;;5073462;28;20049;-66
2022/01/22 13:19:38;;;;;;;;;;;4.60;99.90;;;;;;5074185;28;19947;-67
2022/01/22 13:22:05;;;;;;;;;;;4.50;99.90;;;;;;5072929;28;20369;-67
2022/01/22 13:24:31;;;;;;;;;;;4.50;99.90;;;;;;5078267;28;20399;-67
2022/01/22 13:27:04;;;;;;;;;;;4.60;99.90;;;;;;5093240;28;20303;-67
2022/01/22 13:29:35;;;;;;;;;;;4.60;99.90;;;;;;5093467;28;19908;-67
2022/01/22 13:32:01;;;;;;;;;;;4.60;99.90;;;;;;5113499;28;19915;-66
2022/01/22 13:34:42;;;;;;;;;;;4.50;99.90;;;;;;5093590;28;20269;-66
2022/01/22 13:40:10;;;;;;;;;;;4.50;99.90;;;;;;5085954;28;19919;-66
2022/01/22 13:48:07;;;;;;;;;;;4.50;99.90;;;;;;5093391;28;19958;-65
2022/01/22 13:50:33;;;;;;;;;;;4.50;99.90;;;;;;5089315;28;19967;-67
2022/01/22 13:52:59;;;;;;;;;;;4.50;99.90;;;;;;5072517;28;19999;-68
2022/01/22 13:55:25;;;;;;;;;;;4.40;99.90;;;;;;5072526;28;19915;-67
2022/01/22 13:57:52;;;;;;;;;;;4.40;99.90;;;;;;5072405;28;19954;-67
2022/01/22 14:00:19;;;;;;;;;;;4.50;99.90;;;;;;5073861;28;20003;-68
2022/01/22 14:05:31;;;;;;;;;;;4.50;99.90;;;;;;5082662;28;19911;-66
2022/01/22 14:08:05;;;;;;;;;;;4.50;99.90;;;;;;5072443;28;20290;-67
2022/01/22 14:10:31;;;;;;;;;;;4.40;99.90;;;;;;5073148;28;19911;-68
2022/01/22 14:13:07;;;;;;;;;;;4.40;99.90;;;;;;5076871;28;19954;-66
2022/01/22 14:15:36;;;;;;;;;;;4.40;99.90;;;;;;5092935;28;19954;-67
2022/01/22 14:20:37;;;;;;;;;;;4.30;99.90;;;;;;5093377;28;19984;-68
2022/01/22 14:23:10;;;;;;;;;;;4.40;99.90;;;;;;5083480;28;19912;-68
2022/01/22 14:25:56;;;;;;;;;;;4.40;99.90;;;;;;5086068;28;19915;-67
2022/01/22 14:28:23;;;;;;;;;;;4.40;99.90;;;;;;5091960;28;19959;-68
2022/01/22 14:30:49;;;;;;;;;;;4.30;99.90;;;;;;5080325;28;20363;-68
2022/01/22 14:33:16;;;;;;;;;;;4.30;99.90;;;;;;5091981;28;19908;-68
2022/01/22 14:35:42;;;;;;;;;;;4.40;99.90;;;;;;5093009;28;19903;-70
2022/01/22 14:38:23;;;;;;;;;;;4.40;99.90;;;;;;5091153;28;19929;-68
2022/01/22 14:46:53;;;;;;;;;;;4.20;99.90;;;;;;5091512;28;19915;-69
2022/01/22 14:49:23;;;;;;;;;;;4.20;99.90;;;;;;5072353;28;19917;-67
2022/01/22 14:51:48;;;;;;;;;;;4.10;99.90;;;;;;5072198;28;19980;-68
2022/01/22 14:54:15;;;;;;;;;;;4.10;99.90;;;;;;5072274;28;20376;-68
2022/01/22 14:56:41;;;;;;;;;;;4.20;99.90;;;;;;5072764;28;20262;-69
2022/01/22 14:59:07;;;;;;;;;;;4.10;99.90;;;;;;5075314;28;19908;-69
2022/01/22 15:01:32;;;;;;;;;;;4.10;99.90;;;;;;5088454;28;19916;-68
2022/01/22 15:03:58;;;;;;;;;;;4.10;99.90;;;;;;5085625;28;20319;-69
2022/01/22 15:06:23;;;;;;;;;;;4.10;99.90;;;;;;5092481;28;19904;-68
2022/01/22 15:08:49;;;;;;;;;;;4.10;99.90;;;;;;5091403;28;19911;-68
2022/01/22 15:11:14;;;;;;;;;;;4.10;99.90;;;;;;5090186;28;19912;-69
2022/01/22 15:13:40;;;;;;;;;;;4.00;99.90;;;;;;5074135;28;19904;-68
2022/01/22 15:16:05;;;;;;;;;;;4.10;99.90;;;;;;5091286;28;19904;-69
2022/01/22 15:21:09;;;;;;;;;;;4.00;99.90;;;;;;5088620;28;19943;-68
2022/01/22 15:23:34;;;;;;;;;;;4.00;99.90;;;;;;5073779;28;19916;-68
2022/01/22 15:26:00;;;;;;;;;;;4.10;99.90;;;;;;5079163;28;20036;-67
2022/01/22 15:28:31;;;;;;;;;;;4.20;99.90;;;;;;5081753;28;19908;-67
2022/01/22 15:30:57;;;;;;;;;;;4.20;99.90;;;;;;5077253;28;20268;-72
2022/01/22 15:33:36;;;;;;;;;;;4.20;99.90;;;;;;5094755;28;19916;-68
2022/01/22 15:36:02;;;;;;;;;;;4.30;99.90;;;;;;5094360;28;19908;-67
2022/01/22 15:38:27;;;;;;;;;;;4.20;99.90;;;;;;5095784;28;19915;-67
2022/01/22 15:40:53;;;;;;;;;;;4.20;99.90;;;;;;5094657;28;19963;-68
2022/01/22 15:43:18;;;;;;;;;;;4.20;99.90;;;;;;5096408;28;19916;-70
2022/01/22 15:45:44;;;;;;;;;;;4.20;99.90;;;;;;5093101;28;20277;-68
2022/01/22 15:48:10;;;;;;;;;;;4.10;99.90;;;;;;5078706;28;20369;-68
2022/01/22 15:50:38;;;;;;;;;;;4.10;99.90;;;;;;5095549;28;19924;-68
2022/01/22 15:53:04;;;;;;;;;;;4.10;99.90;;;;;;5095160;28;20345;-70
2022/01/22 15:55:30;;;;;;;;;;;4.20;99.90;;;;;;5095475;28;19911;-71
2022/01/22 15:57:56;;;;;;;;;;;4.20;99.90;;;;;;5094395;28;20425;-72
2022/01/22 16:00:22;;;;;;;;;;;4.10;99.90;;;;;;5095161;28;20272;-71
2022/01/22 16:02:48;;;;;;;;;;;4.00;99.90;;;;;;5093949;28;19916;-70
2022/01/22 16:05:13;;;;;;;;;;;4.00;99.90;;;;;;5095542;28;19904;-70
2022/01/22 16:07:39;;;;;;;;;;;4.00;99.90;;;;;;5094831;28;20446;-71
2022/01/22 16:10:06;;;;;;;;;;;4.00;99.90;;;;;;5093821;28;19955;-70
2022/01/22 16:12:32;;;;;;;;;;;4.00;99.90;;;;;;5094650;28;19919;-70
2022/01/22 16:14:58;;;;;;;;;;;4.00;99.90;;;;;;5094654;28;19904;-70
2022/01/22 16:17:24;;;;;;;;;;;4.00;99.90;;;;;;5095115;28;20357;-70
2022/01/22 16:19:50;;;;;;;;;;;4.00;99.90;;;;;;5087474;28;19912;-70
2022/01/22 16:22:16;;;;;;;;;;;4.10;99.90;;;;;;5091884;28;20356;-70
2022/01/22 16:24:42;;;;;;;;;;;4.00;99.90;;;;;;5094982;28;20006;-68
2022/01/22 16:27:08;;;;;;;;;;;4.00;99.90;;;;;;5094577;28;19910;-71